logo
Rechercher aéroport 
image banner adimage banner adimage banner ad
image banner ad

FANY - Nylstroom

Situé à Nylstroom, South Africa

ICAO - FANY, IATA -

Données fournies par Airmate  

Information générale

Coordonnées: S24°41'8" E28°25'41"
Élévation : 3900 feet MSL.
 
Voir autres Aéroports à Limpopo

Données opérationnelles

Special qualification required
Heure actuelle UTC:
Heure actuelle locale:
Météo à : - ( 0 km )
METAR: UBBN 251702Z 11016G26KT 9999 TS SCT040CB BKN083 16/09 Q1010 NOSIG
Voir NOTAMs / SUP AIP / TFR affectant cet aéroport [VIEW]
Fréquences de communication: [VIEW]

Pistes:

Identifiant RWYQFULongueur (ft)Largeur (ft)SurfaceLDA (ft)
1085°397056ASP
28265°397056ASP

Coordonnées de l'aéroport

Adresse: Nylstroom South Africa

Autres services

Activités touristique

Adventures with Elephants

Adventures with Elephants

Vue satellite de FANY